sensor_id;sensor_type;location;lat;lon;timestamp;temperature;humidity
3648;DHT22;1840;48.892;15.312;2023-01-19T00:00:08;-1.70;94.30
3648;DHT22;1840;48.892;15.312;2023-01-19T00:02:38;-1.60;94.60
3648;DHT22;1840;48.892;15.312;2023-01-19T00:05:06;-1.60;94.50
3648;DHT22;1840;48.892;15.312;2023-01-19T00:07:34;-1.60;94.50
3648;DHT22;1840;48.892;15.312;2023-01-19T00:10:02;-1.60;94.60
3648;DHT22;1840;48.892;15.312;2023-01-19T00:12:30;-1.60;94.70
3648;DHT22;1840;48.892;15.312;2023-01-19T00:14:58;-1.60;94.70
3648;DHT22;1840;48.892;15.312;2023-01-19T00:17:28;-1.60;94.80
3648;DHT22;1840;48.892;15.312;2023-01-19T00:19:56;-1.60;95.10
3648;DHT22;1840;48.892;15.312;2023-01-19T00:22:24;-1.60;94.80
3648;DHT22;1840;48.892;15.312;2023-01-19T00:24:52;-1.60;94.80
3648;DHT22;1840;48.892;15.312;2023-01-19T00:27:19;-1.80;94.60
3648;DHT22;1840;48.892;15.312;2023-01-19T00:29:47;-2.00;94.90
3648;DHT22;1840;48.892;15.312;2023-01-19T00:32:15;-1.90;95.10
3648;DHT22;1840;48.892;15.312;2023-01-19T00:34:47;-1.80;94.80
3648;DHT22;1840;48.892;15.312;2023-01-19T00:37:17;-1.80;94.70
3648;DHT22;1840;48.892;15.312;2023-01-19T00:39:46;-1.80;94.80
3648;DHT22;1840;48.892;15.312;2023-01-19T00:42:14;-1.80;94.90
3648;DHT22;1840;48.892;15.312;2023-01-19T00:44:59;-1.90;94.80
3648;DHT22;1840;48.892;15.312;2023-01-19T00:47:27;-1.80;94.80
3648;DHT22;1840;48.892;15.312;2023-01-19T00:49:57;-1.80;94.90
3648;DHT22;1840;48.892;15.312;2023-01-19T00:52:25;-1.80;95.10
3648;DHT22;1840;48.892;15.312;2023-01-19T00:54:53;-1.80;95.20
3648;DHT22;1840;48.892;15.312;2023-01-19T00:57:21;-1.80;95.20
3648;DHT22;1840;48.892;15.312;2023-01-19T00:59:49;-1.70;95.10
3648;DHT22;1840;48.892;15.312;2023-01-19T01:02:17;-1.70;95.10
3648;DHT22;1840;48.892;15.312;2023-01-19T01:04:45;-1.70;95.30
3648;DHT22;1840;48.892;15.312;2023-01-19T01:07:14;-1.70;95.00
3648;DHT22;1840;48.892;15.312;2023-01-19T01:09:42;-1.80;95.00
3648;DHT22;1840;48.892;15.312;2023-01-19T01:12:10;-1.70;95.00
3648;DHT22;1840;48.892;15.312;2023-01-19T01:14:38;-1.80;95.00
3648;DHT22;1840;48.892;15.312;2023-01-19T01:17:06;-1.80;95.10
3648;DHT22;1840;48.892;15.312;2023-01-19T01:19:37;-1.90;95.10
3648;DHT22;1840;48.892;15.312;2023-01-19T01:22:05;-1.90;95.10
3648;DHT22;1840;48.892;15.312;2023-01-19T01:24:35;-1.80;95.20
3648;DHT22;1840;48.892;15.312;2023-01-19T01:27:03;-1.90;94.90
3648;DHT22;1840;48.892;15.312;2023-01-19T01:29:31;-1.90;94.90
3648;DHT22;1840;48.892;15.312;2023-01-19T01:32:01;-1.80;94.90
3648;DHT22;1840;48.892;15.312;2023-01-19T01:34:29;-1.80;94.90
3648;DHT22;1840;48.892;15.312;2023-01-19T01:36:57;-1.80;95.00
3648;DHT22;1840;48.892;15.312;2023-01-19T01:39:25;-1.90;94.80
3648;DHT22;1840;48.892;15.312;2023-01-19T01:41:55;-1.90;95.10
3648;DHT22;1840;48.892;15.312;2023-01-19T01:44:47;-1.90;95.30
3648;DHT22;1840;48.892;15.312;2023-01-19T01:47:24;-2.00;95.20
3648;DHT22;1840;48.892;15.312;2023-01-19T01:49:59;-1.80;95.50
3648;DHT22;1840;48.892;15.312;2023-01-19T01:52:29;-1.90;95.40
3648;DHT22;1840;48.892;15.312;2023-01-19T01:54:59;-1.80;95.50
3648;DHT22;1840;48.892;15.312;2023-01-19T01:57:36;-1.80;95.70
3648;DHT22;1840;48.892;15.312;2023-01-19T02:00:06;-1.70;95.70
3648;DHT22;1840;48.892;15.312;2023-01-19T02:02:35;-1.70;95.60
3648;DHT22;1840;48.892;15.312;2023-01-19T02:05:21;-1.70;95.70
3648;DHT22;1840;48.892;15.312;2023-01-19T02:07:55;-1.70;95.80
3648;DHT22;1840;48.892;15.312;2023-01-19T02:10:41;-1.60;95.90
3648;DHT22;1840;48.892;15.312;2023-01-19T02:13:30;-1.50;95.90
3648;DHT22;1840;48.892;15.312;2023-01-19T02:16:01;-1.50;95.90
3648;DHT22;1840;48.892;15.312;2023-01-19T02:18:30;-1.40;96.00
3648;DHT22;1840;48.892;15.312;2023-01-19T02:21:05;-1.30;95.80
3648;DHT22;1840;48.892;15.312;2023-01-19T02:23:40;-1.50;96.30
3648;DHT22;1840;48.892;15.312;2023-01-19T02:26:12;-1.50;96.30
3648;DHT22;1840;48.892;15.312;2023-01-19T02:28:45;-1.30;96.10
3648;DHT22;1840;48.892;15.312;2023-01-19T02:31:14;-1.40;96.50
3648;DHT22;1840;48.892;15.312;2023-01-19T02:33:43;-1.30;96.30
3648;DHT22;1840;48.892;15.312;2023-01-19T02:36:12;-1.30;96.30
3648;DHT22;1840;48.892;15.312;2023-01-19T02:38:44;-1.40;96.60
3648;DHT22;1840;48.892;15.312;2023-01-19T02:41:15;-1.30;96.40
3648;DHT22;1840;48.892;15.312;2023-01-19T02:43:47;-1.30;96.70
3648;DHT22;1840;48.892;15.312;2023-01-19T02:46:15;-1.20;96.80
3648;DHT22;1840;48.892;15.312;2023-01-19T02:48:43;-1.20;96.60
3648;DHT22;1840;48.892;15.312;2023-01-19T02:51:13;-1.10;96.20
3648;DHT22;1840;48.892;15.312;2023-01-19T02:54:12;-1.20;96.50
3648;DHT22;1840;48.892;15.312;2023-01-19T02:57:02;-1.10;96.60
3648;DHT22;1840;48.892;15.312;2023-01-19T02:59:41;-1.10;96.60
3648;DHT22;1840;48.892;15.312;2023-01-19T03:02:20;-1.10;96.60
3648;DHT22;1840;48.892;15.312;2023-01-19T03:04:58;-1.20;96.80
3648;DHT22;1840;48.892;15.312;2023-01-19T03:07:33;-1.10;96.50
3648;DHT22;1840;48.892;15.312;2023-01-19T03:10:10;-1.10;96.60
3648;DHT22;1840;48.892;15.312;2023-01-19T03:12:44;-1.10;96.60
3648;DHT22;1840;48.892;15.312;2023-01-19T03:15:17;-1.00;96.60
3648;DHT22;1840;48.892;15.312;2023-01-19T03:17:48;-0.90;96.40
3648;DHT22;1840;48.892;15.312;2023-01-19T03:20:19;-0.80;96.70
3648;DHT22;1840;48.892;15.312;2023-01-19T03:22:54;-0.80;96.70
3648;DHT22;1840;48.892;15.312;2023-01-19T03:25:27;-0.80;96.50
3648;DHT22;1840;48.892;15.312;2023-01-19T03:27:58;-1.00;96.60
3648;DHT22;1840;48.892;15.312;2023-01-19T03:30:30;-0.90;96.60
3648;DHT22;1840;48.892;15.312;2023-01-19T03:33:03;-0.70;96.70
3648;DHT22;1840;48.892;15.312;2023-01-19T03:35:34;-0.70;96.70
3648;DHT22;1840;48.892;15.312;2023-01-19T03:38:08;-0.70;96.60
3648;DHT22;1840;48.892;15.312;2023-01-19T03:40:40;-0.70;96.70
3648;DHT22;1840;48.892;15.312;2023-01-19T03:43:08;-0.70;96.80
3648;DHT22;1840;48.892;15.312;2023-01-19T03:45:37;-0.70;96.70
3648;DHT22;1840;48.892;15.312;2023-01-19T03:48:06;-0.70;96.60
3648;DHT22;1840;48.892;15.312;2023-01-19T03:50:35;-0.80;96.60
3648;DHT22;1840;48.892;15.312;2023-01-19T03:53:08;-0.70;96.60
3648;DHT22;1840;48.892;15.312;2023-01-19T03:55:38;-0.60;96.60
3648;DHT22;1840;48.892;15.312;2023-01-19T03:58:08;-0.80;96.90
3648;DHT22;1840;48.892;15.312;2023-01-19T04:00:37;-0.90;97.00
3648;DHT22;1840;48.892;15.312;2023-01-19T04:03:09;-1.10;97.30
3648;DHT22;1840;48.892;15.312;2023-01-19T04:05:39;-1.10;97.40
3648;DHT22;1840;48.892;15.312;2023-01-19T04:08:07;-1.00;97.20
3648;DHT22;1840;48.892;15.312;2023-01-19T04:10:35;-1.00;97.20
3648;DHT22;1840;48.892;15.312;2023-01-19T04:13:04;-1.20;97.40
3648;DHT22;1840;48.892;15.312;2023-01-19T04:15:33;-1.20;97.80
3648;DHT22;1840;48.892;15.312;2023-01-19T04:18:01;-1.00;97.40
3648;DHT22;1840;48.892;15.312;2023-01-19T04:20:29;-0.80;97.30
3648;DHT22;1840;48.892;15.312;2023-01-19T04:22:58;-0.80;97.00
3648;DHT22;1840;48.892;15.312;2023-01-19T04:25:28;-1.00;97.40
3648;DHT22;1840;48.892;15.312;2023-01-19T04:27:56;-0.90;97.40
3648;DHT22;1840;48.892;15.312;2023-01-19T04:30:25;-0.80;97.20
3648;DHT22;1840;48.892;15.312;2023-01-19T04:32:56;-0.80;97.20
3648;DHT22;1840;48.892;15.312;2023-01-19T04:35:25;-0.70;97.00
3648;DHT22;1840;48.892;15.312;2023-01-19T04:37:54;-0.80;97.00
3648;DHT22;1840;48.892;15.312;2023-01-19T04:40:22;-0.70;97.00
3648;DHT22;1840;48.892;15.312;2023-01-19T04:42:50;-0.70;96.80
3648;DHT22;1840;48.892;15.312;2023-01-19T04:45:18;-0.80;96.50
3648;DHT22;1840;48.892;15.312;2023-01-19T04:47:46;-0.90;96.50
3648;DHT22;1840;48.892;15.312;2023-01-19T04:50:15;-0.80;96.70
3648;DHT22;1840;48.892;15.312;2023-01-19T04:52:45;-0.80;96.50
3648;DHT22;1840;48.892;15.312;2023-01-19T04:55:13;-0.70;96.60
3648;DHT22;1840;48.892;15.312;2023-01-19T04:57:41;-0.60;96.30
3648;DHT22;1840;48.892;15.312;2023-01-19T05:00:11;-0.60;96.20
3648;DHT22;1840;48.892;15.312;2023-01-19T05:02:39;-0.70;96.40
3648;DHT22;1840;48.892;15.312;2023-01-19T05:05:10;-0.90;96.60
3648;DHT22;1840;48.892;15.312;2023-01-19T05:07:40;-0.90;96.70
3648;DHT22;1840;48.892;15.312;2023-01-19T05:10:10;-0.90;96.50
3648;DHT22;1840;48.892;15.312;2023-01-19T05:12:38;-0.90;96.70
3648;DHT22;1840;48.892;15.312;2023-01-19T05:15:07;-0.90;96.50
3648;DHT22;1840;48.892;15.312;2023-01-19T05:17:35;-0.80;96.20
3648;DHT22;1840;48.892;15.312;2023-01-19T05:20:04;-0.80;96.60
3648;DHT22;1840;48.892;15.312;2023-01-19T05:22:33;-0.60;96.20
3648;DHT22;1840;48.892;15.312;2023-01-19T05:25:02;-0.70;96.30
3648;DHT22;1840;48.892;15.312;2023-01-19T05:27:30;-0.70;96.20
3648;DHT22;1840;48.892;15.312;2023-01-19T05:29:58;-0.60;96.20
3648;DHT22;1840;48.892;15.312;2023-01-19T05:32:26;-0.60;96.30
3648;DHT22;1840;48.892;15.312;2023-01-19T05:34:54;-0.80;96.50
3648;DHT22;1840;48.892;15.312;2023-01-19T05:37:22;-0.60;96.30
3648;DHT22;1840;48.892;15.312;2023-01-19T05:39:51;-0.50;96.00
3648;DHT22;1840;48.892;15.312;2023-01-19T05:42:21;-0.60;96.20
3648;DHT22;1840;48.892;15.312;2023-01-19T05:44:49;-0.70;96.40
3648;DHT22;1840;48.892;15.312;2023-01-19T05:47:17;-0.80;96.50
3648;DHT22;1840;48.892;15.312;2023-01-19T05:49:45;-0.60;96.30
3648;DHT22;1840;48.892;15.312;2023-01-19T05:52:13;-0.60;96.20
3648;DHT22;1840;48.892;15.312;2023-01-19T05:54:41;-0.60;96.20
3648;DHT22;1840;48.892;15.312;2023-01-19T05:57:09;-0.70;96.30
3648;DHT22;1840;48.892;15.312;2023-01-19T05:59:38;-0.80;96.40
3648;DHT22;1840;48.892;15.312;2023-01-19T06:02:06;-1.00;96.90
3648;DHT22;1840;48.892;15.312;2023-01-19T06:04:35;-0.90;96.70
3648;DHT22;1840;48.892;15.312;2023-01-19T06:07:04;-1.00;96.80
3648;DHT22;1840;48.892;15.312;2023-01-19T06:09:32;-1.10;97.10
3648;DHT22;1840;48.892;15.312;2023-01-19T06:12:00;-1.20;97.30
3648;DHT22;1840;48.892;15.312;2023-01-19T06:14:28;-1.20;97.30
3648;DHT22;1840;48.892;15.312;2023-01-19T06:16:57;-1.20;97.50
3648;DHT22;1840;48.892;15.312;2023-01-19T06:19:25;-1.10;97.00
3648;DHT22;1840;48.892;15.312;2023-01-19T06:21:53;-1.00;96.90
3648;DHT22;1840;48.892;15.312;2023-01-19T06:24:21;-0.90;96.60
3648;DHT22;1840;48.892;15.312;2023-01-19T06:26:50;-0.80;96.10
3648;DHT22;1840;48.892;15.312;2023-01-19T06:29:18;-1.00;96.30
3648;DHT22;1840;48.892;15.312;2023-01-19T06:31:47;-1.00;96.20
3648;DHT22;1840;48.892;15.312;2023-01-19T06:34:17;-0.80;96.10
3648;DHT22;1840;48.892;15.312;2023-01-19T06:36:45;-0.80;96.00
3648;DHT22;1840;48.892;15.312;2023-01-19T06:39:14;-0.80;95.60
3648;DHT22;1840;48.892;15.312;2023-01-19T06:41:41;-0.90;96.00
3648;DHT22;1840;48.892;15.312;2023-01-19T06:44:10;-0.80;95.70
3648;DHT22;1840;48.892;15.312;2023-01-19T06:46:38;-0.80;96.30
3648;DHT22;1840;48.892;15.312;2023-01-19T06:49:06;-0.80;95.70
3648;DHT22;1840;48.892;15.312;2023-01-19T06:51:35;-0.90;95.70
3648;DHT22;1840;48.892;15.312;2023-01-19T06:54:03;-1.10;96.00
3648;DHT22;1840;48.892;15.312;2023-01-19T06:56:31;-1.00;96.10
3648;DHT22;1840;48.892;15.312;2023-01-19T06:59:00;-0.90;95.60
3648;DHT22;1840;48.892;15.312;2023-01-19T07:01:28;-0.90;96.10
3648;DHT22;1840;48.892;15.312;2023-01-19T07:03:56;-0.80;96.00
3648;DHT22;1840;48.892;15.312;2023-01-19T07:06:24;-0.70;95.70
3648;DHT22;1840;48.892;15.312;2023-01-19T07:08:54;-0.80;95.30
3648;DHT22;1840;48.892;15.312;2023-01-19T07:11:23;-1.00;95.60
3648;DHT22;1840;48.892;15.312;2023-01-19T07:13:58;-1.20;96.20
3648;DHT22;1840;48.892;15.312;2023-01-19T07:16:27;-1.10;96.10
3648;DHT22;1840;48.892;15.312;2023-01-19T07:18:55;-1.00;96.10
3648;DHT22;1840;48.892;15.312;2023-01-19T07:21:23;-0.70;95.90
3648;DHT22;1840;48.892;15.312;2023-01-19T07:23:55;-0.80;96.20
3648;DHT22;1840;48.892;15.312;2023-01-19T07:26:23;-0.60;96.00
3648;DHT22;1840;48.892;15.312;2023-01-19T07:28:53;-0.60;95.90
3648;DHT22;1840;48.892;15.312;2023-01-19T07:31:21;-0.90;96.50
3648;DHT22;1840;48.892;15.312;2023-01-19T07:33:50;-0.70;96.30
3648;DHT22;1840;48.892;15.312;2023-01-19T07:36:18;-0.80;96.30
3648;DHT22;1840;48.892;15.312;2023-01-19T07:38:46;-0.90;96.70
3648;DHT22;1840;48.892;15.312;2023-01-19T07:41:15;-0.90;96.70
3648;DHT22;1840;48.892;15.312;2023-01-19T07:43:43;-1.00;96.70
3648;DHT22;1840;48.892;15.312;2023-01-19T07:46:11;-0.90;96.80
3648;DHT22;1840;48.892;15.312;2023-01-19T07:48:39;-0.90;96.70
3648;DHT22;1840;48.892;15.312;2023-01-19T07:51:08;-0.90;96.50
3648;DHT22;1840;48.892;15.312;2023-01-19T07:53:38;-0.90;96.80
3648;DHT22;1840;48.892;15.312;2023-01-19T07:56:07;-0.70;96.60
3648;DHT22;1840;48.892;15.312;2023-01-19T07:58:37;-0.70;96.40
3648;DHT22;1840;48.892;15.312;2023-01-19T08:01:06;-0.90;96.70
3648;DHT22;1840;48.892;15.312;2023-01-19T08:03:35;-0.80;96.70
3648;DHT22;1840;48.892;15.312;2023-01-19T08:06:03;-0.80;96.80
3648;DHT22;1840;48.892;15.312;2023-01-19T08:08:32;-0.70;96.50
3648;DHT22;1840;48.892;15.312;2023-01-19T08:11:01;-0.80;96.60
3648;DHT22;1840;48.892;15.312;2023-01-19T08:13:29;-0.90;96.50
3648;DHT22;1840;48.892;15.312;2023-01-19T08:15:58;-1.00;96.10
3648;DHT22;1840;48.892;15.312;2023-01-19T08:18:26;-1.30;96.80
3648;DHT22;1840;48.892;15.312;2023-01-19T08:20:54;-1.20;96.80
3648;DHT22;1840;48.892;15.312;2023-01-19T08:23:22;-1.00;96.40
3648;DHT22;1840;48.892;15.312;2023-01-19T08:25:50;-1.00;96.20
3648;DHT22;1840;48.892;15.312;2023-01-19T08:28:18;-1.10;96.20
3648;DHT22;1840;48.892;15.312;2023-01-19T08:30:47;-1.20;96.40
3648;DHT22;1840;48.892;15.312;2023-01-19T08:33:22;-1.00;96.60
3648;DHT22;1840;48.892;15.312;2023-01-19T08:35:52;-0.90;96.40
3648;DHT22;1840;48.892;15.312;2023-01-19T08:38:20;-0.60;96.20
3648;DHT22;1840;48.892;15.312;2023-01-19T08:40:48;-0.70;95.90
3648;DHT22;1840;48.892;15.312;2023-01-19T08:43:16;-0.70;95.80
3648;DHT22;1840;48.892;15.312;2023-01-19T08:45:48;-0.70;95.50
3648;DHT22;1840;48.892;15.312;2023-01-19T08:48:18;-0.70;95.90
3648;DHT22;1840;48.892;15.312;2023-01-19T08:50:50;-0.60;95.90
3648;DHT22;1840;48.892;15.312;2023-01-19T08:53:18;-0.80;96.00
3648;DHT22;1840;48.892;15.312;2023-01-19T08:55:52;-0.80;96.00
3648;DHT22;1840;48.892;15.312;2023-01-19T08:58:20;-0.90;95.60
3648;DHT22;1840;48.892;15.312;2023-01-19T09:00:48;-0.80;95.80
3648;DHT22;1840;48.892;15.312;2023-01-19T09:03:18;-0.50;95.70
3648;DHT22;1840;48.892;15.312;2023-01-19T09:05:46;-0.50;95.00
3648;DHT22;1840;48.892;15.312;2023-01-19T09:08:16;-0.70;94.30
3648;DHT22;1840;48.892;15.312;2023-01-19T09:10:46;-0.90;94.30
3648;DHT22;1840;48.892;15.312;2023-01-19T09:13:14;-0.90;94.00
3648;DHT22;1840;48.892;15.312;2023-01-19T09:15:43;-1.10;93.80
3648;DHT22;1840;48.892;15.312;2023-01-19T09:18:13;-1.10;94.10
3648;DHT22;1840;48.892;15.312;2023-01-19T09:20:43;-1.00;93.60
3648;DHT22;1840;48.892;15.312;2023-01-19T09:23:13;-0.80;93.40
3648;DHT22;1840;48.892;15.312;2023-01-19T09:25:44;-0.70;93.30
3648;DHT22;1840;48.892;15.312;2023-01-19T09:28:14;-0.60;92.70
3648;DHT22;1840;48.892;15.312;2023-01-19T09:30:43;-0.80;92.30
3648;DHT22;1840;48.892;15.312;2023-01-19T09:33:13;-1.10;92.10
3648;DHT22;1840;48.892;15.312;2023-01-19T09:35:42;-1.10;92.40
3648;DHT22;1840;48.892;15.312;2023-01-19T09:38:11;-1.00;92.10
3648;DHT22;1840;48.892;15.312;2023-01-19T09:40:43;-0.70;92.10
3648;DHT22;1840;48.892;15.312;2023-01-19T09:43:14;-0.60;92.00
3648;DHT22;1840;48.892;15.312;2023-01-19T09:45:48;-0.30;92.00
3648;DHT22;1840;48.892;15.312;2023-01-19T09:48:39;-0.30;91.50
3648;DHT22;1840;48.892;15.312;2023-01-19T09:51:14;-0.30;90.40
3648;DHT22;1840;48.892;15.312;2023-01-19T09:53:50;-0.70;90.40
3648;DHT22;1840;48.892;15.312;2023-01-19T09:56:20;-0.50;90.80
3648;DHT22;1840;48.892;15.312;2023-01-19T09:58:50;-0.70;89.50
3648;DHT22;1840;48.892;15.312;2023-01-19T10:01:28;-0.90;90.20
3648;DHT22;1840;48.892;15.312;2023-01-19T10:04:20;-1.00;87.20
3648;DHT22;1840;48.892;15.312;2023-01-19T10:06:58;-1.20;88.40
3648;DHT22;1840;48.892;15.312;2023-01-19T10:09:33;-0.90;89.00
3648;DHT22;1840;48.892;15.312;2023-01-19T10:12:11;-1.00;88.40
3648;DHT22;1840;48.892;15.312;2023-01-19T10:14:48;-0.90;88.60
3648;DHT22;1840;48.892;15.312;2023-01-19T10:17:34;-0.60;88.90
3648;DHT22;1840;48.892;15.312;2023-01-19T10:20:09;-0.40;87.90
3648;DHT22;1840;48.892;15.312;2023-01-19T10:22:41;-0.50;86.10
3648;DHT22;1840;48.892;15.312;2023-01-19T10:25:16;-0.70;87.80
3648;DHT22;1840;48.892;15.312;2023-01-19T10:27:46;-0.70;84.70
3648;DHT22;1840;48.892;15.312;2023-01-19T10:30:19;-0.60;85.30
3648;DHT22;1840;48.892;15.312;2023-01-19T10:32:49;-0.40;85.70
3648;DHT22;1840;48.892;15.312;2023-01-19T10:35:20;-0.30;85.20
3648;DHT22;1840;48.892;15.312;2023-01-19T10:37:51;-0.20;85.20
3648;DHT22;1840;48.892;15.312;2023-01-19T10:40:26;-0.40;84.40
3648;DHT22;1840;48.892;15.312;2023-01-19T10:42:57;-0.40;84.40
3648;DHT22;1840;48.892;15.312;2023-01-19T10:45:27;-0.30;85.10
3648;DHT22;1840;48.892;15.312;2023-01-19T10:47:59;-0.30;84.70
3648;DHT22;1840;48.892;15.312;2023-01-19T10:50:33;-0.30;84.50
3648;DHT22;1840;48.892;15.312;2023-01-19T10:53:03;-0.50;84.40
3648;DHT22;1840;48.892;15.312;2023-01-19T10:55:33;-0.70;85.50
3648;DHT22;1840;48.892;15.312;2023-01-19T10:58:06;-0.60;85.50
3648;DHT22;1840;48.892;15.312;2023-01-19T11:00:52;-0.60;85.40
3648;DHT22;1840;48.892;15.312;2023-01-19T11:03:22;-0.60;86.20
3648;DHT22;1840;48.892;15.312;2023-01-19T11:05:51;-0.60;86.30
3648;DHT22;1840;48.892;15.312;2023-01-19T11:08:27;-0.80;86.30
3648;DHT22;1840;48.892;15.312;2023-01-19T11:10:59;-0.60;85.00
3648;DHT22;1840;48.892;15.312;2023-01-19T11:13:31;-0.60;85.50
3648;DHT22;1840;48.892;15.312;2023-01-19T11:16:04;-0.70;85.00
3648;DHT22;1840;48.892;15.312;2023-01-19T11:18:35;-0.90;84.50
3648;DHT22;1840;48.892;15.312;2023-01-19T11:21:06;-0.90;85.20
3648;DHT22;1840;48.892;15.312;2023-01-19T11:23:36;-0.70;84.70
3648;DHT22;1840;48.892;15.312;2023-01-19T11:26:13;-0.90;83.80
3648;DHT22;1840;48.892;15.312;2023-01-19T11:28:47;-0.90;84.50
3648;DHT22;1840;48.892;15.312;2023-01-19T11:31:18;-0.80;84.30
3648;DHT22;1840;48.892;15.312;2023-01-19T11:33:49;-0.90;83.20
3648;DHT22;1840;48.892;15.312;2023-01-19T11:36:19;-0.70;83.50
3648;DHT22;1840;48.892;15.312;2023-01-19T11:38:49;-0.70;82.50
3648;DHT22;1840;48.892;15.312;2023-01-19T11:41:20;-1.20;83.20
3648;DHT22;1840;48.892;15.312;2023-01-19T11:43:52;-1.50;86.20
3648;DHT22;1840;48.892;15.312;2023-01-19T11:46:23;-1.70;86.60
3648;DHT22;1840;48.892;15.312;2023-01-19T11:48:55;-1.70;86.40
3648;DHT22;1840;48.892;15.312;2023-01-19T11:51:31;-1.70;85.80
3648;DHT22;1840;48.892;15.312;2023-01-19T11:54:04;-1.50;84.70
3648;DHT22;1840;48.892;15.312;2023-01-19T11:56:39;-1.80;85.90
3648;DHT22;1840;48.892;15.312;2023-01-19T11:59:11;-1.60;85.70
3648;DHT22;1840;48.892;15.312;2023-01-19T12:01:45;-1.40;85.30
3648;DHT22;1840;48.892;15.312;2023-01-19T12:04:18;-1.20;84.70
3648;DHT22;1840;48.892;15.312;2023-01-19T12:06:49;-1.10;85.70
3648;DHT22;1840;48.892;15.312;2023-01-19T12:09:22;-1.10;86.40
3648;DHT22;1840;48.892;15.312;2023-01-19T12:11:55;-1.40;85.00
3648;DHT22;1840;48.892;15.312;2023-01-19T12:14:30;-1.30;84.90
3648;DHT22;1840;48.892;15.312;2023-01-19T12:17:03;-1.40;86.50
3648;DHT22;1840;48.892;15.312;2023-01-19T12:19:39;-1.20;86.70
3648;DHT22;1840;48.892;15.312;2023-01-19T12:22:12;-1.10;85.20
3648;DHT22;1840;48.892;15.312;2023-01-19T12:24:47;-1.00;85.00
3648;DHT22;1840;48.892;15.312;2023-01-19T12:27:22;-1.10;84.10
3648;DHT22;1840;48.892;15.312;2023-01-19T12:29:55;-1.30;84.90
3648;DHT22;1840;48.892;15.312;2023-01-19T12:32:32;-1.30;84.80
3648;DHT22;1840;48.892;15.312;2023-01-19T12:35:02;-1.40;85.60
3648;DHT22;1840;48.892;15.312;2023-01-19T12:37:37;-1.20;85.30
3648;DHT22;1840;48.892;15.312;2023-01-19T12:40:20;-1.00;84.60
3648;DHT22;1840;48.892;15.312;2023-01-19T12:42:56;-1.10;85.40
3648;DHT22;1840;48.892;15.312;2023-01-19T12:45:28;-1.00;85.40
3648;DHT22;1840;48.892;15.312;2023-01-19T12:47:58;-1.10;85.20
3648;DHT22;1840;48.892;15.312;2023-01-19T12:50:32;-0.90;84.20
3648;DHT22;1840;48.892;15.312;2023-01-19T12:53:03;-0.90;85.50
3648;DHT22;1840;48.892;15.312;2023-01-19T12:55:35;-0.90;85.60
3648;DHT22;1840;48.892;15.312;2023-01-19T12:58:06;-0.70;85.80
3648;DHT22;1840;48.892;15.312;2023-01-19T13:00:38;-0.60;85.50
3648;DHT22;1840;48.892;15.312;2023-01-19T13:03:41;-0.50;84.70
3648;DHT22;1840;48.892;15.312;2023-01-19T13:06:10;-0.90;85.00
3648;DHT22;1840;48.892;15.312;2023-01-19T13:08:58;-0.60;84.40
3648;DHT22;1840;48.892;15.312;2023-01-19T13:11:26;-0.70;85.60
3648;DHT22;1840;48.892;15.312;2023-01-19T13:17:05;-0.80;85.50
3648;DHT22;1840;48.892;15.312;2023-01-19T13:19:45;-0.80;85.10
3648;DHT22;1840;48.892;15.312;2023-01-19T13:22:49;-0.70;85.60
3648;DHT22;1840;48.892;15.312;2023-01-19T13:25:27;-0.60;85.40
3648;DHT22;1840;48.892;15.312;2023-01-19T13:27:56;-0.60;84.50
3648;DHT22;1840;48.892;15.312;2023-01-19T13:30:26;-1.00;84.90
3648;DHT22;1840;48.892;15.312;2023-01-19T13:33:02;-1.20;86.50
3648;DHT22;1840;48.892;15.312;2023-01-19T13:35:32;-1.10;86.10
3648;DHT22;1840;48.892;15.312;2023-01-19T13:38:00;-1.00;86.50
3648;DHT22;1840;48.892;15.312;2023-01-19T13:40:34;-1.10;86.80
3648;DHT22;1840;48.892;15.312;2023-01-19T13:43:10;-1.10;87.20
3648;DHT22;1840;48.892;15.312;2023-01-19T13:45:46;-1.00;86.50
3648;DHT22;1840;48.892;15.312;2023-01-19T13:48:21;-1.00;87.00
3648;DHT22;1840;48.892;15.312;2023-01-19T13:51:01;-0.90;86.70
3648;DHT22;1840;48.892;15.312;2023-01-19T13:53:30;-0.90;87.30
3648;DHT22;1840;48.892;15.312;2023-01-19T13:56:17;-1.00;87.40
3648;DHT22;1840;48.892;15.312;2023-01-19T13:59:05;-1.10;87.50
3648;DHT22;1840;48.892;15.312;2023-01-19T14:01:37;-1.10;88.50
3648;DHT22;1840;48.892;15.312;2023-01-19T14:04:24;-0.80;88.10
3648;DHT22;1840;48.892;15.312;2023-01-19T14:06:52;-1.10;88.20
3648;DHT22;1840;48.892;15.312;2023-01-19T14:09:21;-1.10;88.70
3648;DHT22;1840;48.892;15.312;2023-01-19T14:12:19;-1.20;89.00
3648;DHT22;1840;48.892;15.312;2023-01-19T14:14:47;-1.60;89.80
3648;DHT22;1840;48.892;15.312;2023-01-19T14:17:21;-1.60;89.60
3648;DHT22;1840;48.892;15.312;2023-01-19T14:19:52;-1.80;90.00
3648;DHT22;1840;48.892;15.312;2023-01-19T14:22:20;-1.70;90.00
3648;DHT22;1840;48.892;15.312;2023-01-19T14:24:48;-1.50;89.80
3648;DHT22;1840;48.892;15.312;2023-01-19T14:27:19;-1.50;89.20
3648;DHT22;1840;48.892;15.312;2023-01-19T14:29:49;-1.30;89.70
3648;DHT22;1840;48.892;15.312;2023-01-19T14:32:21;-1.10;89.30
3648;DHT22;1840;48.892;15.312;2023-01-19T14:35:11;-1.10;88.70
3648;DHT22;1840;48.892;15.312;2023-01-19T14:37:45;-1.30;89.80
3648;DHT22;1840;48.892;15.312;2023-01-19T14:40:17;-1.20;89.00
3648;DHT22;1840;48.892;15.312;2023-01-19T14:42:50;-1.00;89.20
3648;DHT22;1840;48.892;15.312;2023-01-19T14:45:25;-1.00;89.10
3648;DHT22;1840;48.892;15.312;2023-01-19T14:47:56;-0.90;89.00
3648;DHT22;1840;48.892;15.312;2023-01-19T14:50:29;-0.80;89.10
3648;DHT22;1840;48.892;15.312;2023-01-19T14:52:59;-0.90;89.60
3648;DHT22;1840;48.892;15.312;2023-01-19T14:55:32;-1.00;89.90
3648;DHT22;1840;48.892;15.312;2023-01-19T14:58:08;-1.30;90.30
3648;DHT22;1840;48.892;15.312;2023-01-19T15:00:37;-1.10;90.00
3648;DHT22;1840;48.892;15.312;2023-01-19T15:03:05;-1.10;89.80
3648;DHT22;1840;48.892;15.312;2023-01-19T15:05:37;-1.10;90.00
3648;DHT22;1840;48.892;15.312;2023-01-19T15:08:06;-1.20;90.50
3648;DHT22;1840;48.892;15.312;2023-01-19T15:10:34;-1.30;90.70
3648;DHT22;1840;48.892;15.312;2023-01-19T15:13:03;-1.40;90.70
3648;DHT22;1840;48.892;15.312;2023-01-19T15:15:32;-1.40;90.70
3648;DHT22;1840;48.892;15.312;2023-01-19T15:18:03;-1.30;90.70
3648;DHT22;1840;48.892;15.312;2023-01-19T15:20:31;-1.30;90.80
3648;DHT22;1840;48.892;15.312;2023-01-19T15:23:01;-1.30;90.70
3648;DHT22;1840;48.892;15.312;2023-01-19T15:25:29;-1.30;91.00
3648;DHT22;1840;48.892;15.312;2023-01-19T15:27:58;-1.30;90.70
3648;DHT22;1840;48.892;15.312;2023-01-19T15:30:27;-1.30;90.90
3648;DHT22;1840;48.892;15.312;2023-01-19T15:32:56;-1.20;90.70
3648;DHT22;1840;48.892;15.312;2023-01-19T15:35:25;-1.30;90.90
3648;DHT22;1840;48.892;15.312;2023-01-19T15:37:53;-1.30;90.70
3648;DHT22;1840;48.892;15.312;2023-01-19T15:40:22;-1.40;91.10
3648;DHT22;1840;48.892;15.312;2023-01-19T15:42:50;-1.30;91.00
3648;DHT22;1840;48.892;15.312;2023-01-19T15:45:33;-1.30;91.20
3648;DHT22;1840;48.892;15.312;2023-01-19T15:48:03;-1.30;90.90
3648;DHT22;1840;48.892;15.312;2023-01-19T15:50:33;-1.20;91.00
3648;DHT22;1840;48.892;15.312;2023-01-19T15:53:02;-1.20;91.00
3648;DHT22;1840;48.892;15.312;2023-01-19T15:55:31;-1.20;91.10
3648;DHT22;1840;48.892;15.312;2023-01-19T15:58:00;-1.20;90.90
3648;DHT22;1840;48.892;15.312;2023-01-19T16:00:28;-1.20;91.00
3648;DHT22;1840;48.892;15.312;2023-01-19T16:02:57;-1.20;90.90
3648;DHT22;1840;48.892;15.312;2023-01-19T16:05:25;-1.10;91.10
3648;DHT22;1840;48.892;15.312;2023-01-19T16:08:08;-1.20;90.90
3648;DHT22;1840;48.892;15.312;2023-01-19T16:10:37;-1.30;91.10
3648;DHT22;1840;48.892;15.312;2023-01-19T16:13:05;-1.40;91.60